Oshkosh, NE (69154)

1:05 PM MST on November 23, 2014 (GMT -0700)
West end of Town (K0RRL) | Change Station
CLOSE
Current Station
Personal Weather Station
Location: Oshkosh, NE
Elevation: 3394 ft
Nearby Weather Stations
Active Advisory: Flood Advisory

Elev 3394 ft 41.41 °N, 102.36 °W | Updated 29 seconds ago

Clear
Clear
46.8 °F
Feels Like 40 °F
N
15.8
Wind Variable Wind from WNW
Gusts 32.3 mph

Today
High -- | Low -- °F
--% Chance of Precip.
Yesterday
High -- | Low -- °F
Precip. -- in
6:47 AM 4:24 PM
New Moon, 2% visible
Pressure 29.69 in
Visibility 10.0 miles
Clouds Clear
Windchill 40 °F
Dew Point 17 °F
Humidity 30%
Rainfall 0.00 in
Snow Depth Not available.
UV 2 out of 12
Pollen .10 out of 12
Air Quality Not available.
Flu Activity Not available.
METAR KOGA 231955Z AUTO 34026G36KT 10SM CLR 09/M10 A2969 RMK AO2 T00931097

More Conditions Fewer Conditions

Pressure 29.69 in
Visibility 10.0 miles
Clouds Clear
Windchill 40 °F
Dew Point 17 °F
Humidity 30%
Rainfall 0.00 in
Snow Depth Not available.
UV 2 out of 12
Pollen .10 out of 12
Air Quality Not available.
Flu Activity Not available.
METAR KOGA 231955Z AUTO 34026G36KT 10SM CLR 09/M10 A2969 RMK AO2 T00931097

More Conditions Fewer Conditions

10-Day Weather Forecast

Almanac

Astronomy

Nov. 23, 2014 Rise Set
Actual Time
Civil Twilight
Nautical Twilight
Astronomical Twilight
Moon
Length of Visible Light
Length of Day
Tomorrow will be .
, % of the Moon is Illuminated

Today's Extremes

State Highs State Lows

Community

WunderPhotos

Upload Photos

1,773,167 photos uploaded!

WunderBlogs® & News

Nearby

Air Quality

  Air Quality AQ Index Pollutant
Not available.

Snow Depth

Station Depth Elevation

Earthquake Activity

City Distance Mag. Time & Date
Minimum magnitude displayed is 2.5.

Coastal Water Temperatures

Place Temperature

Nearby Weather Stations